Time;durP1;ratioP1;P1;durP2;ratioP2;P2;SDS_P1;SDS_P2;PMS_P1;PMS_P2;Temp;Humidity;BMP_temperature;BMP_pressure;BME280_temperature;BME280_humidity;BME280_pressure;Samples;Min_cycle;Max_cycle;Signal;HPM_P1;HPM_P2
2023/04/14 00:08:34;;;;;;;12.03;5.23;;;;;;;13.78;100.00;99104.63;31371637;28;20052;-80
2023/04/14 00:23:36;;;;;;;8.53;4.77;;;;;;;13.77;100.00;99100.38;31390578;28;20041;-79
2023/04/14 00:38:38;;;;;;;10.50;5.37;;;;;;;13.60;100.00;99102.75;31368242;28;20044;-80
2023/04/14 00:53:41;;;;;;;13.53;6.67;;;;;;;13.69;100.00;99101.97;31376805;28;20509;-80
2023/04/14 01:08:43;;;;;;;18.90;7.00;;;;;;;13.73;100.00;99110.69;31378895;28;20041;-81
2023/04/14 01:24:16;;;;;;;18.00;8.10;;;;;;;13.76;100.00;99110.53;31356020;28;20045;-78
2023/04/14 01:39:22;;;;;;;17.20;7.93;;;;;;;13.69;100.00;99116.34;31377686;28;20041;-80
2023/04/14 01:54:26;;;;;;;18.87;9.43;;;;;;;13.63;100.00;99112.75;31359710;28;20053;-79
2023/04/14 02:09:30;;;;;;;14.20;7.33;;;;;;;13.50;100.00;99114.91;31393706;28;20513;-80
2023/04/14 02:24:32;;;;;;;15.77;9.37;;;;;;;13.45;100.00;99118.28;31384649;28;20369;-80
2023/04/14 02:39:46;;;;;;;15.73;8.90;;;;;;;13.52;100.00;99134.28;31375880;28;20492;-80
2023/04/14 02:54:49;;;;;;;20.80;10.37;;;;;;;13.55;100.00;99144.28;31368764;28;20065;-79
2023/04/14 03:09:52;;;;;;;28.13;13.30;;;;;;;13.49;100.00;99151.56;31391640;28;20048;-80
2023/04/14 03:24:57;;;;;;;26.20;13.00;;;;;;;13.38;100.00;99151.31;31389715;28;20075;-78
2023/04/14 03:40:04;;;;;;;28.27;12.20;;;;;;;13.44;100.00;99161.16;31384983;28;20123;-79
2023/04/14 03:55:11;;;;;;;34.93;15.83;;;;;;;13.35;100.00;99185.72;31389032;28;20053;-80
2023/04/14 04:10:15;;;;;;;30.73;13.83;;;;;;;13.34;100.00;99200.53;31377935;28;20103;-79
2023/04/14 04:25:17;;;;;;;29.27;13.07;;;;;;;13.49;100.00;99217.00;31374035;28;20053;-80
2023/04/14 04:40:19;;;;;;;25.77;12.57;;;;;;;13.67;100.00;99225.16;31361197;28;20041;-80
2023/04/14 04:55:21;;;;;;;26.07;11.70;;;;;;;13.53;100.00;99245.63;31363679;28;20131;-79
2023/04/14 05:10:23;;;;;;;25.63;12.80;;;;;;;13.74;100.00;99259.50;31364244;28;20045;-80
2023/04/14 05:25:25;;;;;;;18.43;10.40;;;;;;;13.81;100.00;99270.84;31366489;28;20052;-80
2023/04/14 05:40:27;;;;;;;19.40;9.70;;;;;;;14.13;100.00;99279.53;31375045;28;20408;-79
2023/04/14 05:55:29;;;;;;;16.30;7.90;;;;;;;14.33;100.00;99274.25;31358693;28;20048;-82
2023/04/14 06:10:31;;;;;;;13.73;6.30;;;;;;;14.57;100.00;99285.97;31352508;28;20049;-80
2023/04/14 06:25:34;;;;;;;13.67;5.90;;;;;;;14.57;100.00;99296.91;31382798;28;20459;-84
2023/04/14 06:40:36;;;;;;;11.20;5.40;;;;;;;15.02;100.00;99327.88;31396012;28;20390;-79
2023/04/14 06:55:40;;;;;;;8.03;4.10;;;;;;;14.39;100.00;99329.75;31416659;28;20061;-81
2023/04/14 07:10:42;;;;;;;9.17;4.53;;;;;;;14.68;100.00;99337.34;31406978;28;20443;-82
2023/04/14 07:25:51;;;;;;;8.20;4.57;;;;;;;14.15;100.00;99342.59;31409696;28;20094;-83
2023/04/14 07:40:53;;;;;;;6.30;3.87;;;;;;;14.04;100.00;99353.22;31416925;28;20101;-84
2023/04/14 07:55:56;;;;;;;6.97;4.03;;;;;;;14.17;100.00;99356.53;31390030;28;20083;-83
2023/04/14 08:10:59;;;;;;;8.10;3.80;;;;;;;13.83;100.00;99377.53;31384540;28;20518;-81
2023/04/14 08:26:02;;;;;;;6.63;4.17;;;;;;;13.88;100.00;99379.66;31380098;28;20049;-85
2023/04/14 08:41:07;;;;;;;7.60;4.30;;;;;;;14.19;100.00;99376.69;31397526;28;20132;-82
2023/04/14 08:56:16;;;;;;;6.93;4.77;;;;;;;13.79;100.00;99387.84;31385249;28;20130;-83
2023/04/14 09:11:18;;;;;;;7.83;5.30;;;;;;;13.58;100.00;99413.31;31375440;28;20139;-86
2023/04/14 09:26:21;;;;;;;10.47;4.70;;;;;;;13.69;100.00;99415.59;31403183;28;20061;-87
2023/04/14 09:41:26;;;;;;;8.40;4.30;;;;;;;14.03;100.00;99436.31;31360400;28;20044;-79
2023/04/14 09:56:28;;;;;;;10.83;5.00;;;;;;;13.63;100.00;99464.53;31378011;28;20085;-78
2023/04/14 10:11:31;;;;;;;11.10;5.30;;;;;;;14.00;100.00;99471.47;31378560;28;20292;-79
2023/04/14 10:26:35;;;;;;;14.00;6.27;;;;;;;13.85;100.00;99484.25;31349708;28;20554;-78
2023/04/14 10:41:44;;;;;;;8.10;4.97;;;;;;;13.38;100.00;99508.44;31396058;28;20048;-83
2023/04/14 10:57:17;;;;;;;12.43;6.00;;;;;;;13.57;100.00;99529.81;31399695;28;20151;-82
2023/04/14 11:12:28;;;;;;;17.43;8.90;;;;;;;13.67;100.00;99554.41;31388083;28;20504;-78
2023/04/14 11:27:32;;;;;;;13.17;7.93;;;;;;;13.35;100.00;99566.56;31413723;28;20076;-81
2023/04/14 11:42:34;;;;;;;11.17;6.60;;;;;;;13.83;100.00;99568.50;31406846;28;20049;-81
2023/04/14 11:57:36;;;;;;;7.47;4.73;;;;;;;13.66;100.00;99570.00;31357189;28;20984;-78
2023/04/14 12:12:38;;;;;;;8.00;5.33;;;;;;;13.81;100.00;99576.38;31356114;28;20465;-78
2023/04/14 12:27:40;;;;;;;9.20;4.23;;;;;;;14.05;100.00;99575.78;31358485;28;20057;-77
2023/04/14 12:42:52;;;;;;;10.10;5.43;;;;;;;14.11;100.00;99582.16;31349602;28;20464;-80
2023/04/14 12:57:57;;;;;;;13.13;7.37;;;;;;;13.72;100.00;99595.44;31338570;28;20090;-81
2023/04/14 13:12:59;;;;;;;12.23;6.03;;;;;;;13.67;100.00;99609.69;31356621;28;20476;-83
2023/04/14 13:28:01;;;;;;;12.57;6.90;;;;;;;13.86;100.00;99605.78;31328011;28;20057;-80
2023/04/14 13:43:04;;;;;;;26.73;12.70;;;;;;;14.18;100.00;99609.91;31343421;28;20102;-80
2023/04/14 13:58:05;;;;;;;8.27;4.83;;;;;;;13.86;100.00;99633.06;31371486;28;20048;-78
2023/04/14 14:13:08;;;;;;;9.90;6.43;;;;;;;13.22;100.00;99662.09;31380162;28;20048;-83
2023/04/14 14:28:13;;;;;;;9.23;5.90;;;;;;;12.52;100.00;99682.44;31408548;28;20048;-86
2023/04/14 14:43:15;;;;;;;6.20;4.50;;;;;;;12.57;100.00;99701.69;31368112;28;20416;-77
2023/04/14 14:58:16;;;;;;;9.97;6.43;;;;;;;12.50;100.00;99721.03;31347603;28;20079;-78
2023/04/14 15:13:18;;;;;;;7.10;4.60;;;;;;;12.24;100.00;99754.94;31340912;28;20474;-78
2023/04/14 15:28:20;;;;;;;7.17;4.70;;;;;;;11.97;100.00;99773.66;31371255;28;20103;-78
2023/04/14 15:43:22;;;;;;;6.97;4.37;;;;;;;11.77;100.00;99790.97;31305159;28;1297266;-79
2023/04/14 15:58:24;;;;;;;10.00;6.33;;;;;;;11.92;100.00;99797.50;31341776;28;20090;-84
2023/04/14 16:13:26;;;;;;;8.07;5.60;;;;;;;11.97;100.00;99817.19;31339614;28;20044;-82
2023/04/14 16:28:34;;;;;;;9.63;5.83;;;;;;;11.99;100.00;99842.00;31368933;28;20044;-80
2023/04/14 16:43:36;;;;;;;9.63;4.70;;;;;;;11.92;100.00;99867.44;31378823;28;20111;-79
2023/04/14 16:58:38;;;;;;;10.87;5.17;;;;;;;12.04;100.00;99887.72;31382322;28;20400;-83
2023/04/14 17:13:41;;;;;;;6.67;3.93;;;;;;;11.54;100.00;99899.97;31356968;28;20057;-81
2023/04/14 17:28:45;;;;;;;11.33;2.77;;;;;;;11.43;100.00;99921.22;31390748;28;20087;-82
2023/04/14 17:43:47;;;;;;;4.80;2.73;;;;;;;11.36;100.00;99946.59;31403567;28;20068;-81
2023/04/14 17:58:50;;;;;;;15.87;6.67;;;;;;;11.34;100.00;99965.28;31389045;28;20095;-82
2023/04/14 18:13:52;;;;;;;4.63;2.80;;;;;;;11.32;100.00;99981.28;31402449;28;20083;-82
2023/04/14 18:28:56;;;;;;;6.80;3.07;;;;;;;11.27;100.00;99985.28;31367097;28;20507;-83
2023/04/14 18:43:58;;;;;;;3.43;2.70;;;;;;;11.24;100.00;99986.13;31400069;28;20111;-82
2023/04/14 18:59:00;;;;;;;10.63;2.53;;;;;;;11.18;100.00;100008.78;31440801;28;20553;-83
2023/04/14 19:14:04;;;;;;;3.10;2.17;;;;;;;11.17;100.00;100005.28;31410291;28;20072;-82
2023/04/14 19:29:08;;;;;;;193.67;44.30;;;;;;;10.91;100.00;100011.72;31409451;28;20063;-85
2023/04/14 19:44:11;;;;;;;10.10;4.37;;;;;;;11.04;100.00;100031.63;31415813;28;20094;-85
2023/04/14 19:59:13;;;;;;;5.33;2.90;;;;;;;11.10;100.00;100027.19;31374655;28;20049;-85
2023/04/14 20:14:16;;;;;;;5.13;3.20;;;;;;;11.05;100.00;100049.44;31403408;28;20051;-84
2023/04/14 20:29:18;;;;;;;6.47;3.07;;;;;;;10.94;100.00;100068.69;31375920;28;20479;-83
2023/04/14 20:44:20;;;;;;;13.20;5.77;;;;;;;10.66;100.00;100090.22;31386940;28;20068;-81
2023/04/14 20:59:23;;;;;;;3.83;2.50;;;;;;;10.61;100.00;100117.88;31361864;28;20416;-82
2023/04/14 21:14:24;;;;;;;3.30;2.17;;;;;;;10.52;100.00;100138.19;31333509;28;20045;-82
2023/04/14 21:29:46;;;;;;;9.17;2.70;;;;;;;10.50;100.00;100148.69;31354809;28;20059;-82
2023/04/14 21:44:48;;;;;;;3.90;2.73;;;;;;;10.63;100.00;100158.97;31365854;28;20049;-80
2023/04/14 21:59:50;;;;;;;6.67;2.90;;;;;;;10.70;100.00;100188.66;31340724;28;20073;-81
2023/04/14 22:14:52;;;;;;;10.53;4.10;;;;;;;10.52;100.00;100191.72;31347615;28;20053;-82
2023/04/14 22:29:55;;;;;;;17.97;6.87;;;;;;;10.42;100.00;100208.94;31366312;28;20068;-82
2023/04/14 22:44:57;;;;;;;7.87;3.23;;;;;;;10.28;100.00;100215.38;31341995;28;20061;-80
2023/04/14 22:59:59;;;;;;;6.90;3.57;;;;;;;10.41;100.00;100221.75;31363117;28;20426;-79
2023/04/14 23:15:02;;;;;;;13.43;5.77;;;;;;;10.29;100.00;100216.94;31378138;28;20045;-79
2023/04/14 23:30:07;;;;;;;6.23;2.97;;;;;;;10.22;100.00;100223.22;31366832;28;20045;-79
2023/04/14 23:45:09;;;;;;;8.60;2.50;;;;;;;10.31;100.00;100230.06;31386009;28;20091;-80
